Time,TemperatureF,DewpointF,PressureIn,WindDirection,WindDirectionDegrees,WindSpeedMPH,WindSpeedGustMPH,Humidity,HourlyPrecipIn,Conditions,Clouds,dailyrainin,SoftwareType,DateUTC
2013-07-04 00:06:00,75.2,74.0,30.19,SSE,165,0.0,0.0,95,0.00,,,0.00,weatherlink.com 1.10,2013-07-04 04:06:00,
2013-07-04 00:21:00,75.0,74.0,30.19,SSE,165,0.0,0.0,95,0.00,,,0.00,weatherlink.com 1.10,2013-07-04 04:21:00,
2013-07-04 00:36:00,74.8,73.0,30.18,SSE,165,0.0,0.0,95,0.00,,,0.00,weatherlink.com 1.10,2013-07-04 04:36:00,
2013-07-04 00:51:00,74.5,73.0,30.18,SSE,165,0.0,0.0,95,0.00,,,0.00,weatherlink.com 1.10,2013-07-04 04:51:00,
2013-07-04 01:06:00,74.2,73.0,30.19,SSE,165,0.0,0.0,96,0.00,,,0.00,weatherlink.com 1.10,2013-07-04 05:06:00,
2013-07-04 01:21:00,74.2,73.0,30.19,SSE,165,0.0,0.0,96,0.00,,,0.00,weatherlink.com 1.10,2013-07-04 05:21:00,
2013-07-04 01:36:00,74.3,73.0,30.19,SSE,165,0.0,1.0,96,0.00,,,0.00,weatherlink.com 1.10,2013-07-04 05:36:00,
2013-07-04 01:51:00,74.3,73.0,30.18,SSE,165,0.0,1.0,96,0.00,,,0.00,weatherlink.com 1.10,2013-07-04 05:51:00,
2013-07-04 02:06:00,74.1,73.0,30.18,SSE,165,0.0,0.0,96,0.00,,,0.00,weatherlink.com 1.10,2013-07-04 06:06:00,
2013-07-04 02:21:00,74.1,73.0,30.18,SSE,165,0.0,0.0,96,0.00,,,0.00,weatherlink.com 1.10,2013-07-04 06:21:00,
2013-07-04 02:36:00,74.3,73.0,30.18,SSE,165,0.0,1.0,97,0.00,,,0.00,weatherlink.com 1.10,2013-07-04 06:36:00,
2013-07-04 02:51:00,74.4,73.0,30.18,SSE,165,0.0,1.0,96,0.00,,,0.00,weatherlink.com 1.10,2013-07-04 06:51:00,
2013-07-04 03:06:00,74.4,73.0,30.18,SSE,165,0.0,0.0,96,0.00,,,0.00,weatherlink.com 1.10,2013-07-04 07:06:00,
2013-07-04 03:21:00,74.2,73.0,30.18,SSE,165,0.0,0.0,96,0.00,,,0.00,weatherlink.com 1.10,2013-07-04 07:21:00,
2013-07-04 03:36:00,74.2,73.0,30.18,SSE,165,0.0,0.0,96,0.00,,,0.00,weatherlink.com 1.10,2013-07-04 07:36:00,
2013-07-04 03:51:00,74.3,73.0,30.17,SSE,165,0.0,1.0,97,0.00,,,0.00,weatherlink.com 1.10,2013-07-04 07:51:00,
2013-07-04 04:06:00,74.3,73.0,30.17,SSE,165,0.0,0.0,97,0.00,,,0.00,weatherlink.com 1.10,2013-07-04 08:06:00,
2013-07-04 04:21:00,74.2,73.0,30.17,South,173,0.0,2.0,97,0.00,,,0.00,weatherlink.com 1.10,2013-07-04 08:21:00,
2013-07-04 04:36:00,74.2,73.0,30.18,South,173,0.0,1.0,97,0.00,,,0.00,weatherlink.com 1.10,2013-07-04 08:36:00,
2013-07-04 04:51:00,74.0,73.0,30.18,South,173,0.0,0.0,97,0.00,,,0.00,weatherlink.com 1.10,2013-07-04 08:51:00,
2013-07-04 05:06:00,73.9,73.0,30.18,South,173,0.0,2.0,97,0.00,,,0.00,weatherlink.com 1.10,2013-07-04 09:06:00,
2013-07-04 05:21:00,74.0,73.0,30.18,South,173,0.0,1.0,97,0.00,,,0.00,weatherlink.com 1.10,2013-07-04 09:21:00,
2013-07-04 05:36:00,74.0,73.0,30.18,South,173,0.0,1.0,97,0.00,,,0.00,weatherlink.com 1.10,2013-07-04 09:36:00,
2013-07-04 05:51:00,73.9,73.0,30.19,South,173,0.0,1.0,97,0.00,,,0.00,weatherlink.com 1.10,2013-07-04 09:51:00,
2013-07-04 06:06:00,73.8,73.0,30.19,South,173,0.0,0.0,97,0.00,,,0.00,weatherlink.com 1.10,2013-07-04 10:06:00,
2013-07-04 06:21:00,73.7,73.0,30.19,South,173,0.0,0.0,97,0.00,,,0.00,weatherlink.com 1.10,2013-07-04 10:21:00,
2013-07-04 06:36:00,73.9,73.0,30.20,South,191,0.0,2.0,97,0.00,,,0.00,weatherlink.com 1.10,2013-07-04 10:36:00,
2013-07-04 06:51:00,74.0,73.0,30.20,SSW,212,0.0,3.0,97,0.00,,,0.00,weatherlink.com 1.10,2013-07-04 10:51:00,
2013-07-04 07:06:00,74.2,73.0,30.20,SW,234,0.0,5.0,97,0.00,,,0.00,weatherlink.com 1.10,2013-07-04 11:06:00,
2013-07-04 07:21:00,74.4,73.0,30.20,SW,236,0.0,3.0,96,0.00,,,0.00,weatherlink.com 1.10,2013-07-04 11:21:00,
2013-07-04 07:36:00,74.7,74.0,30.21,WSW,258,0.0,3.0,96,0.00,,,0.00,weatherlink.com 1.10,2013-07-04 11:36:00,
2013-07-04 07:51:00,75.1,74.0,30.22,West,259,0.0,2.0,95,0.00,,,0.00,weatherlink.com 1.10,2013-07-04 11:51:00,
2013-07-04 08:06:00,75.4,73.0,30.22,East,92,0.0,4.0,93,0.00,,,0.00,weatherlink.com 1.10,2013-07-04 12:06:00,
2013-07-04 08:21:00,75.8,73.0,30.22,ESE,118,0.0,3.0,92,0.00,,,0.00,weatherlink.com 1.10,2013-07-04 12:21:00,
2013-07-04 08:37:00,76.5,74.0,30.22,WNW,298,0.0,4.0,91,0.00,,,0.00,weatherlink.com 1.10,2013-07-04 12:37:00,
2013-07-04 08:52:00,77.0,74.0,30.22,WNW,298,0.0,3.0,89,0.00,,,0.00,weatherlink.com 1.10,2013-07-04 12:52:00,
2013-07-04 09:07:00,77.5,74.0,30.21,WNW,282,1.0,3.0,88,0.00,,,0.00,weatherlink.com 1.10,2013-07-04 13:07:00,
2013-07-04 09:22:00,78.4,74.0,30.22,West,278,4.0,6.0,87,0.00,,,0.00,weatherlink.com 1.10,2013-07-04 13:22:00,
2013-07-04 09:37:00,79.2,74.0,30.22,West,276,0.0,6.0,85,0.00,,,0.00,weatherlink.com 1.10,2013-07-04 13:37:00,
2013-07-04 09:52:00,80.1,75.0,30.22,West,280,0.0,6.0,83,0.00,,,0.00,weatherlink.com 1.10,2013-07-04 13:52:00,
2013-07-04 10:07:00,80.8,74.0,30.21,North,9,2.0,5.0,80,0.00,,,0.00,weatherlink.com 1.10,2013-07-04 14:07:00,
2013-07-04 10:22:00,81.1,75.0,30.21,WSW,246,0.0,7.0,81,0.00,,,0.00,weatherlink.com 1.10,2013-07-04 14:22:00,
2013-07-04 10:37:00,81.5,75.0,30.21,West,265,0.0,5.0,80,0.00,,,0.00,weatherlink.com 1.10,2013-07-04 14:37:00,
2013-07-04 10:52:00,82.4,75.0,30.20,West,275,1.0,5.0,79,0.00,,,0.00,weatherlink.com 1.10,2013-07-04 14:52:00,
2013-07-04 11:07:00,82.5,75.0,30.20,West,281,0.0,4.0,78,0.00,,,0.00,weatherlink.com 1.10,2013-07-04 15:07:00,
2013-07-04 11:22:00,83.2,75.0,30.20,WSW,255,0.0,5.0,75,0.00,,,0.00,weatherlink.com 1.10,2013-07-04 15:22:00,
2013-07-04 11:37:00,83.1,74.0,30.20,West,281,0.0,10.0,75,0.00,,,0.00,weatherlink.com 1.10,2013-07-04 15:37:00,
2013-07-04 11:52:00,83.2,75.0,30.20,SSW,200,0.0,5.0,77,0.00,,,0.00,weatherlink.com 1.10,2013-07-04 15:52:00,
2013-07-04 12:07:00,83.8,76.0,30.20,West,261,2.0,2.0,76,0.00,,,0.00,weatherlink.com 1.10,2013-07-04 16:07:00,
2013-07-04 12:22:00,84.3,75.0,30.19,WNW,296,1.0,5.0,74,0.00,,,0.00,weatherlink.com 1.10,2013-07-04 16:22:00,
2013-07-04 12:37:00,84.8,74.0,30.19,WSW,254,0.0,5.0,69,0.00,,,0.00,weatherlink.com 1.10,2013-07-04 16:37:00,
2013-07-04 12:52:00,85.7,74.0,30.19,WNW,291,0.0,6.0,69,0.00,,,0.00,weatherlink.com 1.10,2013-07-04 16:52:00,
2013-07-04 13:07:00,86.7,74.0,30.19,WNW,290,0.0,6.0,67,0.00,,,0.00,weatherlink.com 1.10,2013-07-04 17:07:00,
2013-07-04 13:22:00,86.9,74.0,30.18,West,281,0.0,6.0,66,0.00,,,0.00,weatherlink.com 1.10,2013-07-04 17:22:00,
2013-07-04 13:37:00,86.9,74.0,30.18,NE,51,0.0,6.0,66,0.00,,,0.00,weatherlink.com 1.10,2013-07-04 17:37:00,
2013-07-04 13:52:00,86.8,75.0,30.17,North,360,0.0,7.0,67,0.00,,,0.00,weatherlink.com 1.10,2013-07-04 17:52:00,
2013-07-04 14:07:00,87.2,75.0,30.16,West,269,0.0,4.0,67,0.00,,,0.00,weatherlink.com 1.10,2013-07-04 18:07:00,
2013-07-04 14:22:00,87.1,75.0,30.16,West,262,0.0,7.0,68,0.00,,,0.00,weatherlink.com 1.10,2013-07-04 18:22:00,
2013-07-04 14:37:00,87.6,75.0,30.16,SE,144,0.0,7.0,66,0.00,,,0.00,weatherlink.com 1.10,2013-07-04 18:37:00,
2013-07-04 14:52:00,88.0,74.0,30.16,West,272,0.0,7.0,64,0.00,,,0.00,weatherlink.com 1.10,2013-07-04 18:52:00,
2013-07-04 15:07:00,88.8,76.0,30.16,ESE,110,0.0,7.0,66,0.00,,,0.00,weatherlink.com 1.10,2013-07-04 19:07:00,
2013-07-04 15:22:00,89.2,75.0,30.15,SSW,192,1.0,5.0,64,0.00,,,0.00,weatherlink.com 1.10,2013-07-04 19:22:00,
2013-07-04 15:37:00,89.7,75.0,30.14,NW,321,0.0,7.0,63,0.00,,,0.00,weatherlink.com 1.10,2013-07-04 19:37:00,
2013-07-04 15:52:00,89.7,75.0,30.14,SW,225,0.0,6.0,62,0.00,,,0.00,weatherlink.com 1.10,2013-07-04 19:52:00,
2013-07-04 16:08:00,89.7,75.0,30.13,West,279,0.0,5.0,62,0.00,,,0.00,weatherlink.com 1.10,2013-07-04 20:08:00,
2013-07-04 16:23:00,89.3,74.0,30.13,SW,236,1.0,3.0,61,0.00,,,0.00,weatherlink.com 1.10,2013-07-04 20:23:00,
2013-07-04 16:38:00,89.7,75.0,30.13,West,273,0.0,6.0,63,0.00,,,0.00,weatherlink.com 1.10,2013-07-04 20:38:00,
2013-07-04 16:53:00,89.7,75.0,30.13,NW,315,0.0,4.0,62,0.00,,,0.00,weatherlink.com 1.10,2013-07-04 20:53:00,
2013-07-04 17:08:00,88.6,75.0,30.13,WSW,240,1.0,7.0,65,0.00,,,0.00,weatherlink.com 1.10,2013-07-04 21:08:00,
2013-07-04 17:23:00,88.4,75.0,30.12,SW,227,0.0,6.0,64,0.00,,,0.00,weatherlink.com 1.10,2013-07-04 21:23:00,
2013-07-04 17:38:00,87.9,76.0,30.12,NW,311,0.0,3.0,67,0.00,,,0.00,weatherlink.com 1.10,2013-07-04 21:38:00,
2013-07-04 17:53:00,87.8,75.0,30.12,NW,326,0.0,6.0,66,0.00,,,0.00,weatherlink.com 1.10,2013-07-04 21:53:00,
2013-07-04 18:08:00,87.5,75.0,30.11,WNW,284,0.0,3.0,67,0.00,,,0.00,weatherlink.com 1.10,2013-07-04 22:08:00,
2013-07-04 18:23:00,87.1,75.0,30.11,ESE,120,0.0,3.0,68,0.00,,,0.00,weatherlink.com 1.10,2013-07-04 22:23:00,
2013-07-04 18:38:00,87.5,75.0,30.12,NW,306,0.0,3.0,67,0.00,,,0.00,weatherlink.com 1.10,2013-07-04 22:38:00,
2013-07-04 18:53:00,87.2,75.0,30.12,WNW,300,0.0,4.0,68,0.00,,,0.00,weatherlink.com 1.10,2013-07-04 22:53:00,
2013-07-04 19:08:00,86.8,75.0,30.12,WSW,257,0.0,3.0,68,0.00,,,0.00,weatherlink.com 1.10,2013-07-04 23:08:00,
2013-07-04 19:23:00,86.6,75.0,30.12,West,276,0.0,2.0,68,0.00,,,0.00,weatherlink.com 1.10,2013-07-04 23:23:00,
2013-07-04 19:38:00,86.0,75.0,30.12,West,281,0.0,1.0,69,0.00,,,0.00,weatherlink.com 1.10,2013-07-04 23:38:00,
2013-07-04 19:53:00,84.8,75.0,30.13,West,281,0.0,3.0,72,0.00,,,0.00,weatherlink.com 1.10,2013-07-04 23:53:00,
2013-07-04 20:08:00,83.8,75.0,30.13,WNW,283,0.0,1.0,74,0.00,,,0.00,weatherlink.com 1.10,2013-07-05 00:08:00,
2013-07-04 20:23:00,83.0,74.0,30.13,WNW,283,0.0,1.0,75,0.00,,,0.00,weatherlink.com 1.10,2013-07-05 00:23:00,
2013-07-04 20:38:00,82.3,74.0,30.14,WNW,283,0.0,2.0,76,0.00,,,0.00,weatherlink.com 1.10,2013-07-05 00:38:00,
2013-07-04 20:53:00,81.6,74.0,30.14,WNW,283,0.0,0.0,77,0.00,,,0.00,weatherlink.com 1.10,2013-07-05 00:53:00,
2013-07-04 21:08:00,81.2,74.0,30.14,WNW,283,0.0,0.0,78,0.00,,,0.00,weatherlink.com 1.10,2013-07-05 01:08:00,
2013-07-04 21:23:00,80.7,74.0,30.14,WNW,284,0.0,2.0,79,0.00,,,0.00,weatherlink.com 1.10,2013-07-05 01:23:00,
2013-07-04 21:38:00,80.4,74.0,30.15,WNW,283,0.0,1.0,80,0.00,,,0.00,weatherlink.com 1.10,2013-07-05 01:38:00,
2013-07-04 21:53:00,80.0,73.0,30.15,WNW,283,0.0,1.0,80,0.00,,,0.00,weatherlink.com 1.10,2013-07-05 01:53:00,
2013-07-04 22:08:00,79.8,73.0,30.15,West,277,0.0,2.0,80,0.00,,,0.00,weatherlink.com 1.10,2013-07-05 02:08:00,
2013-07-04 22:23:00,79.6,73.0,30.15,West,277,0.0,1.0,81,0.00,,,0.00,weatherlink.com 1.10,2013-07-05 02:23:00,
2013-07-04 22:38:00,79.4,73.0,30.15,West,279,0.0,3.0,81,0.00,,,0.00,weatherlink.com 1.10,2013-07-05 02:38:00,
2013-07-04 22:53:00,79.2,73.0,30.16,West,279,0.0,1.0,81,0.00,,,0.00,weatherlink.com 1.10,2013-07-05 02:53:00,
2013-07-04 23:08:00,78.9,73.0,30.16,West,279,0.0,0.0,82,0.00,,,0.00,weatherlink.com 1.10,2013-07-05 03:08:00,
2013-07-04 23:23:00,78.8,73.0,30.16,West,281,0.0,1.0,82,0.00,,,0.00,weatherlink.com 1.10,2013-07-05 03:23:00,
2013-07-04 23:38:00,78.6,73.0,30.16,West,281,0.0,1.0,82,0.00,,,0.00,weatherlink.com 1.10,2013-07-05 03:38:00,
2013-07-04 23:53:00,78.4,73.0,30.16,West,280,1.0,2.0,82,0.00,,,0.00,weatherlink.com 1.10,2013-07-05 03:53:00,